الصفحة الرئيسية
METAR-TAF:

METAR-TAF

مطار :

مطار بغداد الدولي

بغداد, العراق

دائرة عرض: 33-15-45N, خط طول: 44-14-04E, ارتفاع: 35 متر

مراقبة الطقس الحالي

تاريخ ووقت الإصدار 1ساعة و 37 دقيقة قبل الساعة 22:00UTC
ريح 5 عقدة من الشمال الغربي
درجة الحرارة 25°درجة مئوية
الرطوبة 32%
ضغط 1009 hPa
الرؤية 10 كم أو أكثر
الغيوم لا تقل 1500 م ولا وجود لمزنة ركامية السحاب الأسود

METAR: ORBI 242200Z 31005KT CAVOK 25/07 Q1009 NOSIG

زمن: 02:37 (23:37 UTC)

توقعات

تاريخ ووقت الإصدار 37 دقيقة قبل الساعة 23:00UTC
التوقعات صالحة من25 الساعة 00 UTC إلى 25 الساعة 24 UTC
ريح 8 عقدة من الشمال الغربي
الرؤية: 8000 متر

TAF: ORBI 242300Z 2500/2524 32008KT 8000 NSC

أرصاد الطقس والتوقعات من أكثر من 4000 مطار (تقارير الطقس للمطار METAR والتنبؤ بالطقس بالمطارTAF).

المحطات المتاحة هي النقط الصفراء والحمراء على الخريطة.

حرك المؤشر فوق النقطة لمعرفة اسم المحطة.

ثم انقر لمعرفة أرصاد وتوقعات الطقس.

لتغيير الخارطة: اضغط على الأزرار الخضراء مع رمز الصليب الأسود للتكبير. على الزر الأخضر مع شرطة للتصغير، أو على الأسهم الخضراء للخرائط المجاورة.


METAR-TAF: